Ana Sayfa
METAR-TAF:

METAR-TAF

Havaalanları :

Nassau, Bahamalar

Enlem: 25-03N, Boylam: 077-28W, yükseklik: 3 m

Güncel hava durumu gözlemi

Rapor saat 09:00 UTC de 46 dakika önce yapıldı.
Rüzgar güneydoğudan 7 kt
Sıcaklık 29°C
Nem 79%
Basınç 1018 hPa
Görüş mesafesi 10 km veya daha fazla
2000 ft yükseklikte az bulutlu
3000 ft yükseklikte parçalı bulutlu
20000 ft yükseklikte parçalı çok bulutlu

METAR: MYNN 190900Z 14007KT 9999 FEW020 SCT030 BKN200 29/25 A3006

Saat: 05:46 (09:46 UTC)

Tahmin

Rapor saat 05:58 UTC de 3 saat ve 48 dakika önce yapıldı.
Ayın 19'si saat 06 UTC'den ayın 20'si saat 06 UTC'ye kadar geçerli Tahmin
Rüzgar güneydoğudan 8 kt
Görüş mesafesi 10 km veya daha fazla
2200 ft yükseklikte parçalı bulutlu

TAF: MYNN 190558Z 1906/2006 14008KT 9999 SCT022

4.000'den fazla havaalanı için hava durumu gözlemleri ve tahminleri (METAR ve TAF raporları).

Kullanılabilir istasyonlar harita üzerinde sarı ve kırmızı noktalarla gösterilir.

İstasyonun adını görmek için fareyi noktanın üzerinde gezdirin.

Sonrasında hava gözlem ve tahminlerini görmek için tıklayın.

Haritayı değiştirmek için: yaklaştırmak için siyah artı işaretli yeşil düğmeye ve uzaklaştırmak için de eksi işaretli düğmeye hızla tıklayın; bitişik haritalar için yeşil okları kullanın.


METAR-TAF: